Latest Weather Observations for Albany Airport

IDW60801

Issued at 10:02 pm WST Tuesday 28 April 2015 (issued every 30 minutes, with the page automatically refreshed every 10 minutes)

About weather observations | Map of weather stations | Latest weather observations for WA | Other Formats
Station Details ID: 009999 Name: ALBANY AIRPORT Lat: -34.94 Lon: 117.82 Height: 68.4 m
Data from the previous 72 hours. | See also: Recent months at Albany Airport
Date/Time
WST
Temp
°C
App
Temp
°C
Dew
Point
Rel
Hum
%
Delta-T
°C
Wind Press
QNH
hPa
Press
MSL
hPa
Rain
since 9 am
mm
Dir
 
Spd
km/h
Gust
km/h
Spd
kts
Gust
kts
28/10:00pm 14.1 11.3 7.1 62 3.4 NE 11 13 6 7 1022.2 - 0.0
28/09:30pm 14.4 11.4 7.7 64 3.3 ENE 13 17 7 9 1022.4 - 0.0
28/09:00pm 13.8 11.6 9.5 75 2.2 ENE 11 13 6 7 1022.4 1022.4 0.0
28/08:47pm 14.1 12.1 10.3 78 2.0 ENE 11 11 6 6 1022.4 - 0.0
28/08:30pm 14.7 12.9 10.9 78 2.0 ENE 11 15 6 8 1022.3 - 0.0
28/08:00pm 14.3 12.7 11.7 84 1.4 ENE 11 13 6 7 1022.5 - 0.0
28/07:30pm 14.3 12.9 12.1 87 1.2 ENE 11 15 6 8 1022.4 - 0.0
28/07:00pm 15.3 13.9 12.2 82 1.7 ENE 11 13 6 7 1022.4 - 0.0
28/06:30pm 16.2 14.5 12.4 78 2.1 ENE 13 17 7 9 1022.1 - 0.0
28/06:00pm 16.3 14.9 12.1 76 2.3 E 11 13 6 7 1022.0 1022.0 0.0
28/05:30pm 16.9 15.8 10.5 66 3.4 ENE 7 9 4 5 1021.5 - 0.0
28/05:00pm 19.6 18.2 9.6 52 5.3 N 7 9 4 5 1021.7 - 0.0
28/04:30pm 19.7 18.3 10.9 57 4.8 NNE 9 9 5 5 1021.4 - 0.0
28/04:00pm 20.7 18.5 9.2 47 6.1 NNE 11 13 6 7 1021.3 - 0.0
28/03:30pm 22.0 17.7 5.3 33 8.3 N 17 20 9 11 1021.3 - 0.0
28/03:00pm 23.1 19.3 5.6 32 8.8 N 15 22 8 12 1021.2 1021.2 0.0
28/02:30pm 22.9 18.5 5.0 31 8.9 N 17 26 9 14 1021.1 - 0.0
28/02:00pm 23.6 19.1 5.9 32 9.0 N 19 26 10 14 1021.4 - 0.0
28/01:30pm 23.3 17.8 6.0 32 8.8 N 24 33 13 18 1021.8 - 0.0
28/01:00pm 23.1 18.0 5.9 33 8.7 N 22 30 12 16 1022.1 - 0.0
28/12:30pm 22.2 16.3 5.6 34 8.3 N 26 33 14 18 1022.6 - 0.0
28/12:00pm 22.2 17.2 6.5 36 8.0 N 22 32 12 17 1023.2 1023.2 0.0
28/11:30am 21.7 17.1 6.5 37 7.7 N 20 26 11 14 1023.6 - 0.0
28/11:00am 21.1 16.0 7.5 41 7.0 NNE 24 32 13 17 1024.1 - 0.0
28/10:30am 20.1 15.2 7.1 43 6.6 NNE 22 30 12 16 1024.4 - 0.0
28/10:00am 19.2 15.2 8.1 48 5.7 NNE 19 26 10 14 1024.7 - 0.0
28/09:00am 16.0 13.2 8.7 62 3.7 NE 13 15 7 8 1025.7 1025.7 0.0
28/08:30am 14.1 11.6 8.1 67 3.0 NE 11 15 6 8 1025.9 - 0.0
28/08:00am 12.6 10.5 8.1 74 2.2 NE 9 11 5 6 1026.0 - 0.0
28/07:00am 9.4 6.9 6.4 81 1.4 NE 9 13 5 7 1025.7 - 0.0
28/06:30am 9.0 6.1 6.6 85 1.1 NE 11 13 6 7 1025.6 - 0.0
28/06:00am 9.0 6.3 7.5 90 0.7 NE 11 13 6 7 1025.6 1025.6 0.0
28/05:30am 9.9 7.0 8.0 88 0.9 NE 13 17 7 9 1025.6 - 0.0
28/05:00am 9.9 6.8 8.7 92 0.6 ENE 15 17 8 9 1025.6 - 0.0
28/04:30am 9.7 6.9 8.7 93 0.5 NE 13 15 7 8 1025.5 - 0.0
28/04:00am 9.7 7.4 9.1 96 0.3 ENE 11 13 6 7 1025.6 - 0.0
28/03:30am 10.2 8.3 9.2 93 0.5 NE 9 11 5 6 1025.6 - 0.0
28/03:00am 11.1 8.6 9.7 91 0.7 ENE 13 15 7 8 1025.7 1025.7 0.0
28/02:30am 12.1 9.8 10.5 90 0.8 NE 13 17 7 9 1025.9 - 0.0
28/02:00am 12.9 10.4 11.0 88 1.0 ENE 15 20 8 11 1026.1 - 0.0
28/01:30am 13.2 10.8 11.5 89 0.9 NE 15 20 8 11 1026.5 - 0.0
28/01:00am 13.2 11.8 12.1 93 0.6 NE 11 15 6 8 1026.5 - 0.0
28/12:30am 13.6 11.5 12.3 92 0.7 NE 15 20 8 11 1026.5 - 0.0
28/12:00am 13.5 11.7 12.2 92 0.7 NE 13 15 7 8 1026.5 1026.5 0.0
 
Date/Time
WST
Temp
°C
App
Temp
°C
Dew
Point
Rel
Hum
%
Delta-T
°C
Wind Press
QNH
hPa
Press
MSL
hPa
Rain
since 9 am
mm
Dir
 
Spd
km/h
Gust
km/h
Spd
kts
Gust
kts
27/11:30pm 13.6 11.8 12.1 91 0.8 ENE 13 17 7 9 1026.7 - 0.0
27/11:00pm 13.5 11.3 12.0 91 0.8 NE 15 19 8 10 1026.8 - 0.0
27/10:30pm 13.5 11.2 11.6 88 1.0 ENE 15 19 8 10 1026.9 - 0.0
27/10:00pm 13.7 10.9 11.2 85 1.3 ENE 17 20 9 11 1027.1 - 0.0
27/09:30pm 13.4 11.2 10.7 84 1.4 ENE 13 19 7 10 1027.1 - 0.0
27/09:00pm 13.4 11.1 10.5 82 1.5 ENE 13 17 7 9 1027.2 1027.2 0.0
27/08:30pm 13.8 11.5 10.5 80 1.7 ENE 13 17 7 9 1027.3 - 0.0
27/08:00pm 14.4 11.8 10.6 78 2.0 ENE 15 20 8 11 1027.1 - 0.0
27/07:30pm 14.9 12.2 10.3 74 2.4 ENE 15 22 8 12 1027.1 - 0.0
27/07:00pm 15.3 12.5 10.1 71 2.7 ENE 15 20 8 11 1026.9 - 0.0
27/06:30pm 15.8 12.9 9.8 67 3.1 E 15 22 8 12 1026.5 - 0.0
27/06:00pm 16.2 12.9 9.7 65 3.4 E 17 24 9 13 1026.3 1026.3 0.0
27/05:30pm 17.2 13.8 9.1 59 4.2 E 17 30 9 16 1026.1 - 0.0
27/05:00pm 18.1 14.3 9.8 58 4.4 E 20 33 11 18 1026.0 - 0.0
27/04:30pm 19.2 15.2 9.1 52 5.3 E 20 28 11 15 1025.8 - 0.0
27/04:00pm 19.6 15.0 9.8 53 5.2 ESE 24 30 13 16 1025.8 - 0.0
27/03:30pm 20.0 14.5 9.2 49 5.7 E 28 35 15 19 1025.7 - 0.0
27/03:00pm 20.8 16.3 10.0 50 5.8 ESE 24 32 13 17 1025.6 1025.6 0.0
27/02:30pm 21.0 15.6 4.5 34 8.1 NE 22 28 12 15 1025.6 - 0.0
27/02:00pm 22.2 17.8 5.0 32 8.5 NE 17 26 9 14 1025.7 - 0.0
27/01:30pm 21.0 17.2 6.0 37 7.5 NNE 15 19 8 10 1026.0 - 0.0
27/01:00pm 21.7 17.0 5.1 34 8.2 NE 19 30 10 16 1026.3 - 0.0
27/12:30pm 21.5 18.6 6.5 37 7.6 NNE 11 15 6 8 1026.9 - 0.0
27/12:00pm 21.1 16.2 5.0 35 7.9 NNE 20 32 11 17 1027.6 1027.6 0.0
27/11:30am 20.8 17.5 6.2 38 7.3 N 13 22 7 12 1028.0 - 0.0
27/11:00am 19.5 17.6 10.4 55 4.9 E 11 15 6 8 1028.4 - 0.0
27/10:30am 18.7 16.9 10.7 59 4.3 ENE 11 15 6 8 1028.6 - 0.0
27/10:00am 17.1 15.6 10.7 66 3.4 E 9 13 5 7 1028.7 - 0.0
27/09:30am 15.8 14.1 11.3 74 2.4 E 11 15 6 8 1028.9 - 0.0
27/09:00am 14.3 12.9 10.9 80 1.8 E 9 11 5 6 1029.1 1029.1 0.0
27/08:30am 13.3 12.3 11.0 86 1.2 E 7 11 4 6 1028.9 - 0.0
27/08:00am 11.9 10.4 10.5 91 0.7 NE 9 13 5 7 1028.7 - 0.0
27/07:30am 10.3 9.0 10.1 99 0.1 NE 7 9 4 5 1028.5 - 0.0
27/07:00am 8.1 6.0 8.1 100 0.0 E 9 9 5 5 1028.4 - 0.0
27/06:30am 8.5 6.4 8.1 97 0.2 ESE 9 11 5 6 1028.4 - 0.0
27/06:00am 8.1 5.9 7.9 99 0.1 E 9 11 5 6 1028.4 1028.4 0.0
27/05:53am 8.2 5.6 7.8 97 0.2 E 11 11 6 6 1028.3 - 0.0
27/05:30am 9.7 7.9 9.3 97 0.2 ENE 9 11 5 6 1028.3 - 0.0
27/05:00am 10.0 7.9 9.6 97 0.2 NE 11 13 6 7 1028.3 - 0.0
27/04:30am 10.0 7.9 9.6 97 0.2 NE 11 15 6 8 1028.2 - 0.0
27/04:16am 9.5 7.2 9.1 97 0.2 NE 11 13 6 7 1028.1 - 0.0
27/04:00am 8.9 6.9 8.5 97 0.2 ENE 9 11 5 6 1028.1 - 0.0
27/03:57am 8.8 6.8 8.6 99 0.1 ENE 9 11 5 6 1028.1 - 0.0
27/03:35am 9.4 7.2 9.2 99 0.1 NE 11 13 6 7 1028.0 - 0.0
27/03:30am 9.1 7.2 8.9 99 0.1 NE 9 13 5 7 1028.1 - 0.0
27/03:01am 8.6 6.5 8.2 97 0.2 NE 9 11 5 6 1028.1 - 0.0
27/03:00am 8.3 6.2 8.1 99 0.1 NE 9 11 5 6 1028.1 1028.1 0.0
27/02:30am 9.1 7.2 9.1 100 0.0 ENE 9 9 5 5 1028.2 - 0.0
27/02:10am 9.6 7.4 9.4 99 0.1 ENE 11 13 6 7 1028.4 - 0.0
27/02:00am 9.7 7.9 9.3 97 0.2 NE 9 13 5 7 1028.3 - 0.0
27/01:50am 8.7 7.0 8.3 97 0.2 ENE 7 11 4 6 1028.3 - 0.0
27/01:30am 10.0 8.2 9.6 97 0.2 NNE 9 9 5 5 1028.4 - 0.0
27/01:00am 9.9 7.7 9.3 96 0.3 NE 11 13 6 7 1028.5 - 0.0
27/12:30am 9.2 6.8 8.8 97 0.2 NNE 11 13 6 7 1028.5 - 0.0
27/12:00am 10.4 8.7 10.0 97 0.2 ENE 9 11 5 6 1028.7 1028.7 0.0
 
Date/Time
WST
Temp
°C
App
Temp
°C
Dew
Point
Rel
Hum
%
Delta-T
°C
Wind Press
QNH
hPa
Press
MSL
hPa
Rain
since 9 am
mm
Dir
 
Spd
km/h
Gust
km/h
Spd
kts
Gust
kts
26/11:30pm 10.4 8.3 9.6 95 0.4 ENE 11 13 6 7 1028.7 - 0.0
26/11:00pm 10.8 8.7 9.6 92 0.6 ENE 11 13 6 7 1028.9 - 0.0
26/10:30pm 10.6 8.1 9.6 93 0.5 E 13 13 7 7 1029.0 - 0.0
26/10:00pm 11.3 8.9 9.9 91 0.7 ENE 13 15 7 8 1029.0 - 0.0
26/09:30pm 10.9 8.8 9.7 92 0.6 ENE 11 13 6 7 1029.1 - 0.0
26/09:00pm 11.5 9.1 9.9 90 0.8 E 13 13 7 7 1028.9 1028.9 0.0
26/08:30pm 12.1 9.7 10.1 87 1.0 E 13 15 7 8 1028.7 - 0.0
26/08:00pm 13.1 10.8 10.4 84 1.4 E 13 17 7 9 1028.6 - 0.0
26/07:30pm 12.3 10.0 10.4 88 1.0 ENE 13 17 7 9 1028.6 - 0.0
26/07:00pm 13.4 11.1 10.5 82 1.5 E 13 19 7 10 1028.4 - 0.0
26/06:30pm 14.3 11.7 10.7 79 1.9 E 15 20 8 11 1028.1 - 0.0
26/06:00pm 14.7 11.8 11.1 79 1.9 E 17 20 9 11 1028.0 1028.0 0.0
26/05:30pm 14.8 12.1 11.6 81 1.7 ESE 17 24 9 13 1027.8 - 0.0
26/05:00pm 16.0 12.1 10.7 71 2.8 ESE 22 30 12 16 1027.7 - 0.0
26/04:30pm 16.9 13.1 11.1 68 3.1 ESE 22 30 12 16 1027.7 - 0.0
26/04:00pm 17.6 13.7 9.3 58 4.3 ESE 20 26 11 14 1027.5 - 0.0
26/03:30pm 18.1 14.9 11.1 63 3.8 ESE 19 26 10 14 1027.5 - 0.0
26/03:00pm 17.0 13.5 11.0 68 3.2 ESE 20 24 11 13 1027.4 1027.4 0.0
26/02:30pm 18.0 14.1 10.9 63 3.8 SE 22 32 12 17 1027.3 - 0.0
26/02:00pm 17.4 13.4 10.4 63 3.7 SE 22 28 12 15 1027.4 - 0.0
26/01:30pm 18.2 14.7 10.8 62 4.0 SE 20 26 11 14 1027.5 - 0.0
26/01:00pm 17.7 14.5 10.1 61 4.0 SE 17 22 9 12 1027.7 - 0.0
26/12:30pm 19.2 17.2 8.6 50 5.5 ESE 9 15 5 8 1027.9 - 0.0
26/12:00pm 18.4 15.5 8.0 50 5.3 NE 13 19 7 10 1028.6 1028.6 0.0
26/11:30am 18.5 15.4 8.9 53 5.0 NE 15 20 8 11 1029.0 - 0.0
26/11:00am 17.5 14.3 8.5 55 4.6 NE 15 19 8 10 1029.3 - 0.0
26/10:30am 17.7 14.5 8.5 55 4.7 NE 15 20 8 11 1029.5 - 0.0
26/10:00am 16.7 14.2 9.8 63 3.6 ENE 13 19 7 10 1029.7 - 0.0
26/09:30am 15.3 13.7 10.3 72 2.6 ENE 9 13 5 7 1029.6 - 0.0
26/09:00am 12.8 11.1 9.9 82 1.5 N 9 11 5 6 1029.6 1029.6 0.0
26/08:30am 11.6 10.2 9.6 87 1.0 NNE 7 9 4 5 1029.7 - 0.0
26/08:00am 9.3 7.8 8.5 95 0.4 N 6 7 3 4 1029.6 - 0.0
26/07:30am 6.4 5.1 6.2 99 0.1 N 2 9 1 5 1029.2 - 0.0
26/07:00am 6.5 4.3 6.3 99 0.1 N 7 9 4 5 1029.1 - 0.0
26/06:30am 6.9 5.0 6.7 99 0.1 N 6 7 3 4 1028.8 - 0.0
26/06:00am 6.2 4.0 6.0 99 0.1 N 7 11 4 6 1028.7 1028.7 0.0
26/05:44am 6.5 3.9 6.3 99 0.1 N 9 11 5 6 1028.7 - 0.0
26/05:30am 5.8 3.1 5.8 100 0.0 N 9 13 5 7 1028.6 - 0.0
26/05:00am 6.5 4.0 6.5 100 0.0 N 9 11 5 6 1028.6 - 0.0
26/04:30am 6.9 4.9 6.9 100 0.0 N 7 9 4 5 1028.4 - 0.0
26/04:19am 7.7 5.8 7.7 100 0.0 N 7 9 4 5 1028.3 - 0.0
26/04:00am 8.0 7.5 7.8 99 0.1 CALM 0 0 0 0 1028.2 - 0.0
26/03:50am 7.5 6.9 7.5 100 0.0 CALM 0 0 0 0 1028.2 - 0.0
26/03:30am 7.6 5.9 7.6 100 0.0 N 6 6 3 3 1028.2 - 0.0
26/03:15am 8.5 6.8 8.3 99 0.1 N 7 7 4 4 1028.3 - 0.0
26/03:00am 8.1 7.7 8.1 100 0.0 CALM 0 0 0 0 1028.3 1028.3 0.0
26/02:30am 10.1 9.9 9.1 93 0.5 CALM 0 0 0 0 1028.3 - 0.0
26/02:00am 11.2 11.3 10.0 92 0.6 CALM 0 0 0 0 1028.4 - 0.0
26/01:30am 11.4 11.1 10.0 91 0.7 SW 2 9 1 5 1028.5 - 0.0
26/01:00am 11.6 11.7 10.2 91 0.7 CALM 0 0 0 0 1028.4 - 0.0
26/12:30am 12.1 12.3 10.5 90 0.8 CALM 0 4 0 2 1028.4 - 0.0
26/12:00am 11.7 10.7 10.3 91 0.7 NNE 6 7 3 4 1028.4 1028.4 0.0
 
Date/Time
WST
Temp
°C
App
Temp
°C
Dew
Point
Rel
Hum
%
Delta-T
°C
Wind Press
QNH
hPa
Press
MSL
hPa
Rain
since 9 am
mm
Dir
 
Spd
km/h
Gust
km/h
Spd
kts
Gust
kts
25/11:30pm 12.8 13.0 10.5 86 1.2 CALM 0 0 0 0 1028.4 - 0.0
25/11:00pm 13.0 13.1 10.1 82 1.5 CALM 0 0 0 0 1028.7 - 0.0
25/10:30pm 13.1 11.7 9.6 79 1.8 E 7 9 4 5 1028.8 - 0.0

Other Formats:

Comma delimited format used in spreadsheet applications
http://www.bom.gov.au/fwo/IDW60801/IDW60801.94802.axf

JavaScript Object Notation format (JSON) in row-major order
http://www.bom.gov.au/fwo/IDW60801/IDW60801.94802.json